Village, Arkansas
Current Conditions -  °F | °C
As of 3:53 PM on Friday 19 Dec 2014 (Local Time) from KELD Reporting Station
Overcast Overcast  
Wind Chill: 42°   Ceiling: 700
Heat Index: 46°   Visibility: 8mi
Dew Point: 44°   Wind: 8mph
Humidity: 93%   Direction: 40°NE
Pressure: 30.15"   Gusts: NA
Location:  33.26°N, 93.05°W
Report Text: KELD 192153Z AUTO 04007KT 8SM BKN007 OVC011 08/07 A3015 RMK AO2 CIG 005V009 SLP211 T00780067
Loading
Personal Weather Stations






























Interactive Weather Map New forecast layout! Learn more

10-Day Weather Forecast

Advertisements
Track Severe Weather on mobile